Terminal Aerodrome Forecast
Issued by NWS

Home | Current Version | Previous Version | Text Only | Print | Product List | Glossary On
Versions: 1 2 3 4 5 6 7 8 9 10 11 12 13 14 15 16 17 18 19 20 21 22 23 24 25 26 27 28 29 30 31 32 33 34
053
FTUS41 KOKX 280810 AAB
TAFGON
TAF AMD
KGON 280810Z 2808/2906 VRB03KT P6SM FEW080
     FM281400 20007KT P6SM FEW080
     FM281800 20010KT P6SM FEW080 SCT250
     FM282200 20007KT P6SM FEW080 BKN200
     FM290000 21004KT P6SM SCT070 BKN200
     FM290300 VRB04KT P6SM SCT070 BKN250=

USA.gov is the U.S. government's official web portal to all federal, state and local government web resources and services.